Centennial Airport
KAPA : now visible

Airfield :











YOU CAN JOIN US ON...

 
LOGIN :

Register | Disclaimer

   EN    FR    IT 

 









Legend :    VFR   Marginal VFR   IFR   Intensive IFR   Very Intensive IFR
Visi :
Ceiling :
>= 8 km
>= 3000ft
5 to 8 km
1000 to 3000 ft
1500m to 5 km
500 to 1000 ft
800 to 1500m
200 to 500 ft
< 800m
< 200 ft
Symbols :   Thunderstorms  Fog  Heavy snow  Heavy precipitations  Wind > 20 kt







- Airport Elevation : 5885 ft


KAPA - Centennial

CURRENT METAR :
  • 210553Z 25006KT 10SM FEW110 BKN140 BKN200 14/M01 A2980 RMK AO2 SLP028 60000 T01391011 10228 20133 56006

EXPIRED METARs :
  • 210453Z 31008KT 10SM FEW120 BKN140 BKN200 17/M02 A2981 RMK AO2 SLP027 T01671022
  • 210353Z 00000KT 10SM SCT100 BKN120 BKN200 18/M03 A2980 RMK AO2 SLP026 T01831033

TAF KAPA
Valid from the 21 at 06:00 until the 22 at 06:00 UTC


210541Z 2106/2206 31007KT P6SM SCT110 BKN200
FM211100 24010KT P6SM SCT090 BKN150
FM211800 02012KT P6SM SCT070 BKN120
FM212000 01014G22KT P6SM BKN070 OVC100
TEMPO 2120/2124 -SHRA BKN050
FM220000 01012G20KT P6SM -SHRA SCT015 BKN025
PROB30 2200/2203 -TSRA BKN025CB
FM220300 01012KT P6SM -SHRA BKN014 OVC025
KZDV FIR / North America



MET'MAP, your aeronautical weather chart ! - Copyright ORBIFLY December 2007 - Disclaimer

ORBIFLY MET'MAP TEAM :

Programming & Development : Alexandra Zaïnal
Concept & Development : Baudouin d'Aumeries
Co-Development & Prog : Marc-Olivier Méhu
Technical & hardware support : Manuel Goepfert

Contact : metmap@orbifly.com




SOURCES & CREDITS :

   NOAA       Earth
Advisory